Time;durP1;ratioP1;P1;durP2;ratioP2;P2;SDS_P1;SDS_P2;PMS_P1;PMS_P2;Temp;Humidity;BMP_temperature;BMP_pressure;BME280_temperature;BME280_humidity;BME280_pressure;Samples;Min_cycle;Max_cycle;Signal;HPM_P1;HPM_P2
2021/08/10 00:01:13;;;;;;;12.02;5.22;;;17.30;95.50;;;;;;5093117;28;20040;-56
2021/08/10 00:03:39;;;;;;;12.93;5.38;;;17.30;95.40;;;;;;5093185;28;20043;-55
2021/08/10 00:06:04;;;;;;;11.50;4.70;;;17.40;95.50;;;;;;5074846;28;20032;-54
2021/08/10 00:08:30;;;;;;;9.65;5.43;;;17.40;95.50;;;;;;5093084;28;20356;-57
2021/08/10 00:10:56;;;;;;;9.93;5.10;;;17.40;95.20;;;;;;5092637;28;20039;-56
2021/08/10 00:13:24;;;;;;;31.65;16.30;;;17.40;95.50;;;;;;5093483;28;20459;-53
2021/08/10 00:15:50;;;;;;;17.55;9.32;;;17.40;95.50;;;;;;5092440;28;20059;-56
2021/08/10 00:18:16;;;;;;;11.05;5.90;;;17.40;95.70;;;;;;5092503;28;20105;-57
2021/08/10 00:20:42;;;;;;;9.57;4.85;;;17.30;95.80;;;;;;5092579;28;20412;-58
2021/08/10 00:23:07;;;;;;;11.30;4.75;;;17.20;95.60;;;;;;5092803;28;20028;-52
2021/08/10 00:25:33;;;;;;;8.88;5.00;;;17.10;95.60;;;;;;5092590;28;20632;-52
2021/08/10 00:28:00;;;;;;;7.80;4.60;;;17.20;95.60;;;;;;5092869;28;20040;-55
2021/08/10 00:30:26;;;;;;;8.93;4.90;;;17.10;95.80;;;;;;5092740;28;20028;-53
2021/08/10 00:32:52;;;;;;;9.65;4.32;;;17.10;95.60;;;;;;5092914;28;20036;-53
2021/08/10 00:35:18;;;;;;;9.98;4.75;;;17.10;95.80;;;;;;5092600;28;20032;-53
2021/08/10 00:37:45;;;;;;;12.52;4.78;;;17.10;95.40;;;;;;5092442;28;20044;-52
2021/08/10 00:40:13;;;;;;;8.52;4.45;;;17.00;95.30;;;;;;5092279;28;20458;-55
2021/08/10 00:42:38;;;;;;;6.25;4.10;;;17.00;95.30;;;;;;5092679;28;20051;-56
2021/08/10 00:45:05;;;;;;;11.55;4.93;;;17.10;95.50;;;;;;5092187;28;20058;-59
2021/08/10 00:47:30;;;;;;;11.13;5.50;;;17.10;95.40;;;;;;5092280;28;20034;-57
2021/08/10 00:49:56;;;;;;;7.47;4.35;;;17.10;95.20;;;;;;5092359;28;20036;-56
2021/08/10 00:52:22;;;;;;;9.10;5.15;;;17.00;95.40;;;;;;5092331;28;20047;-56
2021/08/10 00:54:47;;;;;;;16.65;9.10;;;17.00;95.80;;;;;;5092732;28;20035;-56
2021/08/10 00:57:13;;;;;;;10.13;6.55;;;17.10;95.70;;;;;;5092108;28;20047;-56
2021/08/10 00:59:39;;;;;;;6.07;4.75;;;17.10;95.70;;;;;;5092541;28;20036;-55
2021/08/10 01:02:05;;;;;;;8.20;4.78;;;17.10;95.60;;;;;;5091899;28;20073;-53
2021/08/10 01:04:31;;;;;;;7.05;4.50;;;17.10;95.50;;;;;;5074161;28;20035;-58
2021/08/10 01:07:04;;;;;;;7.30;5.13;;;17.00;95.50;;;;;;5092137;28;20036;-53
2021/08/10 01:09:52;;;;;;;7.40;4.55;;;17.10;95.60;;;;;;5092744;28;20016;-53
2021/08/10 01:12:32;;;;;;;11.40;6.25;;;17.10;95.80;;;;;;5092119;28;20433;-57
2021/08/10 01:15:14;;;;;;;9.07;5.78;;;17.10;95.90;;;;;;5096374;28;20028;-54
2021/08/10 01:17:53;;;;;;;11.85;4.70;;;17.10;96.00;;;;;;5096740;28;20032;-54
2021/08/10 01:20:51;;;;;;;6.93;4.88;;;17.10;96.20;;;;;;5096513;28;20046;-57
2021/08/10 01:23:21;;;;;;;7.75;5.25;;;17.00;96.20;;;;;;5025571;28;20126;-54
2021/08/10 01:26:08;;;;;;;7.80;4.90;;;16.90;96.30;;;;;;5096490;28;20028;-54
2021/08/10 01:28:42;;;;;;;6.32;4.85;;;16.90;96.50;;;;;;5096300;28;20093;-57
2021/08/10 01:31:07;;;;;;;10.70;5.60;;;16.90;96.50;;;;;;5095741;28;20096;-58
2021/08/10 01:33:45;;;;;;;7.40;4.57;;;16.90;96.40;;;;;;5077877;28;20506;-57
2021/08/10 01:36:15;;;;;;;9.18;4.85;;;16.90;96.50;;;;;;5095233;28;20376;-56
2021/08/10 01:38:44;;;;;;;6.90;4.85;;;16.90;96.50;;;;;;5095481;28;20039;-56
2021/08/10 01:41:12;;;;;;;7.25;4.18;;;16.90;96.30;;;;;;5095623;28;20430;-58
2021/08/10 01:43:40;;;;;;;5.45;4.68;;;16.90;96.30;;;;;;5095789;28;20073;-57
2021/08/10 01:46:06;;;;;;;8.95;5.32;;;16.90;96.30;;;;;;5095137;28;20050;-56
2021/08/10 01:48:33;;;;;;;6.68;4.47;;;16.90;96.10;;;;;;5096043;28;20043;-54
2021/08/10 01:51:00;;;;;;;6.68;4.63;;;16.80;96.30;;;;;;5095634;28;20024;-56
2021/08/10 01:53:27;;;;;;;11.32;4.78;;;16.70;96.50;;;;;;5095588;28;20039;-52
2021/08/10 01:55:56;;;;;;;9.35;5.07;;;16.70;96.60;;;;;;5095568;28;20035;-56
2021/08/10 01:58:22;;;;;;;9.27;5.38;;;16.60;96.60;;;;;;5095205;28;20196;-56
2021/08/10 02:00:49;;;;;;;12.18;5.07;;;16.60;96.70;;;;;;5095169;28;20496;-56
2021/08/10 02:03:16;;;;;;;10.13;5.78;;;16.60;96.60;;;;;;5095142;28;20036;-56
2021/08/10 02:05:43;;;;;;;9.95;4.88;;;16.70;96.60;;;;;;5094031;28;20040;-58
2021/08/10 02:08:09;;;;;;;5.85;4.45;;;16.70;96.50;;;;;;5095157;28;20059;-59
2021/08/10 02:10:36;;;;;;;9.50;5.05;;;16.60;96.50;;;;;;5095709;28;20114;-57
2021/08/10 02:13:03;;;;;;;8.98;4.45;;;16.70;96.40;;;;;;5095212;28;20092;-56
2021/08/10 02:15:29;;;;;;;6.35;4.88;;;16.70;96.40;;;;;;5094999;28;20100;-58
2021/08/10 02:17:55;;;;;;;7.60;4.80;;;16.60;96.40;;;;;;5095097;28;20044;-55
2021/08/10 02:20:21;;;;;;;8.05;5.07;;;16.60;96.50;;;;;;5094701;28;20028;-58
2021/08/10 02:22:48;;;;;;;6.30;5.00;;;16.60;96.50;;;;;;5076796;28;20061;-57
2021/08/10 02:25:21;;;;;;;5.47;4.93;;;16.60;96.50;;;;;;5094806;28;20040;-56
2021/08/10 02:27:56;;;;;;;6.38;4.82;;;16.60;96.50;;;;;;5094906;28;20040;-58
2021/08/10 02:30:34;;;;;;;8.70;4.57;;;16.50;96.60;;;;;;5077088;28;20506;-58
2021/08/10 02:33:08;;;;;;;9.13;5.32;;;16.50;96.50;;;;;;5077309;28;20048;-55
2021/08/10 02:35:35;;;;;;;6.82;5.00;;;16.40;96.60;;;;;;5076600;28;20492;-56
2021/08/10 02:38:10;;;;;;;7.53;5.07;;;16.40;96.70;;;;;;5094649;28;20028;-54
2021/08/10 02:40:36;;;;;;;8.98;5.43;;;16.40;96.70;;;;;;5059844;28;20032;-58
2021/08/10 02:43:04;;;;;;;7.15;5.28;;;16.50;96.70;;;;;;5076514;28;20082;-57
2021/08/10 02:45:33;;;;;;;7.85;4.82;;;16.50;96.60;;;;;;5094458;28;20387;-57
2021/08/10 02:48:00;;;;;;;10.93;5.53;;;16.40;96.70;;;;;;5094699;28;20034;-57
2021/08/10 02:50:27;;;;;;;12.23;5.13;;;16.40;96.70;;;;;;5094480;28;20040;-60
2021/08/10 02:52:53;;;;;;;7.80;5.28;;;16.50;96.60;;;;;;5094426;28;20059;-56
2021/08/10 02:55:19;;;;;;;6.80;4.90;;;16.40;96.80;;;;;;5094135;28;20032;-55
2021/08/10 02:57:57;;;;;;;7.25;4.95;;;16.40;96.80;;;;;;5094360;28;20032;-56
2021/08/10 03:00:24;;;;;;;6.88;4.95;;;16.40;96.80;;;;;;5075762;28;20028;-54
2021/08/10 03:02:56;;;;;;;8.48;4.57;;;16.40;96.90;;;;;;5094381;28;20032;-53
2021/08/10 03:05:22;;;;;;;6.80;5.00;;;16.40;96.80;;;;;;5094104;28;20077;-51
2021/08/10 03:07:54;;;;;;;6.20;4.65;;;16.40;96.70;;;;;;5094182;28;20483;-54
2021/08/10 03:10:21;;;;;;;6.90;5.25;;;16.40;96.80;;;;;;5094247;28;20032;-54
2021/08/10 03:12:49;;;;;;;9.65;4.88;;;16.40;96.80;;;;;;5094265;28;20464;-57
2021/08/10 03:15:17;;;;;;;11.13;5.43;;;16.40;96.60;;;;;;5093872;28;20035;-54
2021/08/10 03:17:44;;;;;;;8.65;5.05;;;16.40;96.60;;;;;;5094573;28;20048;-51
2021/08/10 03:20:11;;;;;;;9.10;4.93;;;16.40;96.70;;;;;;5093746;28;20036;-56
2021/08/10 03:22:40;;;;;;;6.68;4.90;;;16.40;96.70;;;;;;5093571;28;20034;-54
2021/08/10 03:25:07;;;;;;;11.07;5.22;;;16.40;96.70;;;;;;5093629;28;20020;-56
2021/08/10 03:27:34;;;;;;;9.85;5.35;;;16.40;96.70;;;;;;5093727;28;20062;-55
2021/08/10 03:30:03;;;;;;;7.60;5.85;;;16.30;96.90;;;;;;5093912;28;20057;-53
2021/08/10 03:32:29;;;;;;;7.80;5.60;;;16.20;97.00;;;;;;5094214;28;20518;-57
2021/08/10 03:34:55;;;;;;;6.38;4.90;;;16.20;96.90;;;;;;5093192;28;20028;-57
2021/08/10 03:37:21;;;;;;;9.05;5.35;;;16.10;97.30;;;;;;5093568;28;20040;-56
2021/08/10 03:39:47;;;;;;;8.93;5.20;;;16.10;97.50;;;;;;5094329;28;20044;-58
2021/08/10 03:42:13;;;;;;;7.93;5.47;;;16.20;97.40;;;;;;5093235;28;20022;-58
2021/08/10 03:44:42;;;;;;;7.18;5.53;;;16.20;97.30;;;;;;5093420;28;20032;-58
2021/08/10 03:47:14;;;;;;;8.35;5.40;;;16.20;97.30;;;;;;5093134;28;20024;-57
2021/08/10 03:49:41;;;;;;;9.10;5.30;;;16.30;97.30;;;;;;5093446;28;20472;-54
2021/08/10 03:52:10;;;;;;;44.08;29.33;;;16.40;97.30;;;;;;5093310;28;20040;-54
2021/08/10 03:54:36;;;;;;;20.08;13.48;;;16.40;97.20;;;;;;5093475;28;20044;-56
2021/08/10 03:57:03;;;;;;;10.80;7.68;;;16.40;97.10;;;;;;5092889;28;20488;-56
2021/08/10 03:59:31;;;;;;;10.93;8.13;;;16.40;97.10;;;;;;5092924;28;20028;-57
2021/08/10 04:01:56;;;;;;;14.82;8.73;;;16.40;97.10;;;;;;5093312;28;20164;-54
2021/08/10 04:04:24;;;;;;;11.63;8.20;;;16.40;97.10;;;;;;5093085;28;20126;-56
2021/08/10 04:06:50;;;;;;;7.50;6.30;;;16.50;97.10;;;;;;5092997;28;20032;-53
2021/08/10 04:09:16;;;;;;;6.97;6.05;;;16.40;97.00;;;;;;5093044;28;20046;-58
2021/08/10 04:11:42;;;;;;;8.23;5.63;;;16.30;97.10;;;;;;5074912;28;20044;-59
2021/08/10 04:14:08;;;;;;;8.00;5.45;;;16.30;97.20;;;;;;5093007;28;20085;-54
2021/08/10 04:17:00;;;;;;;8.63;5.63;;;16.40;97.20;;;;;;5092237;28;20120;-57
2021/08/10 04:19:31;;;;;;;6.85;6.07;;;16.40;97.00;;;;;;5092071;28;20036;-57
2021/08/10 04:21:58;;;;;;;9.13;5.22;;;16.40;97.00;;;;;;5092759;28;20039;-56
2021/08/10 04:24:23;;;;;;;8.63;5.50;;;16.50;97.00;;;;;;5092447;28;20056;-57
2021/08/10 04:26:49;;;;;;;10.68;6.18;;;16.50;97.00;;;;;;5091832;28;20083;-55
2021/08/10 04:29:15;;;;;;;12.10;6.03;;;16.60;96.90;;;;;;5092697;28;20111;-57
2021/08/10 04:31:42;;;;;;;9.15;6.50;;;16.50;96.80;;;;;;5092578;28;20118;-54
2021/08/10 04:34:07;;;;;;;8.85;5.65;;;16.50;96.80;;;;;;5093165;28;20131;-53
2021/08/10 04:36:33;;;;;;;8.65;5.63;;;16.40;97.00;;;;;;5094809;28;20072;-55
2021/08/10 04:39:00;;;;;;;11.02;5.90;;;16.50;97.10;;;;;;5094253;28;20043;-57
2021/08/10 04:41:25;;;;;;;6.22;5.43;;;16.50;97.00;;;;;;5092521;28;20050;-57
2021/08/10 04:43:52;;;;;;;7.63;5.68;;;16.60;97.00;;;;;;5092469;28;20399;-57
2021/08/10 04:46:22;;;;;;;7.10;5.70;;;16.60;96.80;;;;;;5074334;28;20031;-57
2021/08/10 04:48:48;;;;;;;7.60;5.97;;;16.70;96.80;;;;;;5091419;28;20036;-57
2021/08/10 04:51:13;;;;;;;8.23;5.72;;;16.80;96.70;;;;;;5074330;28;20040;-56
2021/08/10 04:53:40;;;;;;;9.02;6.03;;;16.80;96.60;;;;;;5092859;28;20565;-56
2021/08/10 04:56:06;;;;;;;9.88;6.40;;;16.80;96.60;;;;;;5092297;28;20054;-54
2021/08/10 04:58:32;;;;;;;10.30;6.75;;;16.90;96.60;;;;;;5092623;28;20844;-57
2021/08/10 05:00:57;;;;;;;11.30;6.40;;;16.90;96.60;;;;;;5092902;28;20062;-58
2021/08/10 05:03:23;;;;;;;9.10;6.90;;;16.90;96.70;;;;;;5092664;28;20509;-58
2021/08/10 05:05:48;;;;;;;16.42;12.80;;;16.90;96.70;;;;;;5057196;28;20111;-57
2021/08/10 05:08:15;;;;;;;20.20;14.88;;;16.80;96.40;;;;;;5092795;28;20032;-55
2021/08/10 05:10:42;;;;;;;10.38;7.28;;;16.80;96.50;;;;;;5074414;28;20044;-59
2021/08/10 05:13:08;;;;;;;8.15;6.68;;;16.80;96.50;;;;;;5075026;28;20112;-53
2021/08/10 05:15:35;;;;;;;9.32;6.65;;;16.80;96.50;;;;;;5074216;28;20390;-55
2021/08/10 05:18:00;;;;;;;9.13;6.05;;;16.80;96.60;;;;;;5092621;28;20045;-54
2021/08/10 05:20:26;;;;;;;13.65;7.25;;;16.70;96.60;;;;;;5092016;28;20069;-58
2021/08/10 05:22:51;;;;;;;14.80;7.15;;;16.70;96.60;;;;;;5074418;28;20028;-58
2021/08/10 05:25:17;;;;;;;14.73;8.07;;;16.70;96.70;;;;;;5091991;28;20047;-56
2021/08/10 05:27:42;;;;;;;10.55;7.03;;;16.70;96.80;;;;;;5092096;28;20647;-57
2021/08/10 05:30:09;;;;;;;10.38;7.05;;;16.70;96.80;;;;;;5057578;28;20029;-55
2021/08/10 05:32:34;;;;;;;13.07;6.85;;;16.70;96.80;;;;;;5092338;28;20491;-56
2021/08/10 05:35:00;;;;;;;10.32;6.78;;;16.70;96.70;;;;;;5092445;28;20032;-57
2021/08/10 05:37:26;;;;;;;11.80;7.20;;;16.70;96.50;;;;;;5092018;28;20043;-56
2021/08/10 05:39:51;;;;;;;10.80;5.97;;;16.70;96.60;;;;;;5092152;28;20035;-54
2021/08/10 05:42:17;;;;;;;8.60;6.15;;;16.70;96.50;;;;;;5092085;28;20138;-57
2021/08/10 05:44:42;;;;;;;9.30;7.00;;;16.70;96.30;;;;;;5092428;28;20112;-52
2021/08/10 05:47:08;;;;;;;8.98;6.18;;;16.80;96.20;;;;;;5093800;28;20557;-59
2021/08/10 05:49:33;;;;;;;15.57;8.27;;;16.80;96.30;;;;;;5075894;28;20032;-55
2021/08/10 05:51:59;;;;;;;14.63;7.22;;;16.80;96.30;;;;;;5074655;28;20043;-55
2021/08/10 05:54:24;;;;;;;45.85;23.17;;;16.90;96.30;;;;;;5092209;28;20574;-58
2021/08/10 05:56:50;;;;;;;19.65;11.38;;;16.90;96.20;;;;;;5073898;28;20040;-57
2021/08/10 05:59:16;;;;;;;13.50;9.20;;;16.90;96.50;;;;;;5094159;28;20119;-56
2021/08/10 06:01:41;;;;;;;8.82;7.65;;;17.00;96.70;;;;;;5095862;28;20068;-57
2021/08/10 06:04:07;;;;;;;11.88;7.47;;;17.10;96.60;;;;;;5096154;28;20032;-57
2021/08/10 06:06:34;;;;;;;11.88;9.02;;;17.20;96.60;;;;;;5095574;28;20103;-57
2021/08/10 06:09:01;;;;;;;11.80;7.50;;;17.20;96.60;;;;;;5095640;28;20064;-58
2021/08/10 06:11:27;;;;;;;9.32;7.13;;;17.20;96.60;;;;;;5095047;28;20043;-53
2021/08/10 06:13:52;;;;;;;12.60;7.95;;;17.30;96.70;;;;;;5095435;28;20503;-57
2021/08/10 06:16:18;;;;;;;8.25;6.47;;;17.30;96.70;;;;;;5095308;28;20488;-55
2021/08/10 06:18:44;;;;;;;11.45;7.25;;;17.40;96.50;;;;;;5093743;28;20028;-56
2021/08/10 06:21:10;;;;;;;9.57;6.60;;;17.50;96.40;;;;;;5074747;28;20089;-54
2021/08/10 06:23:35;;;;;;;9.20;6.03;;;17.60;96.10;;;;;;5040312;28;20029;-53
2021/08/10 06:26:01;;;;;;;8.63;6.30;;;17.70;96.10;;;;;;5074306;28;20036;-53
2021/08/10 06:28:27;;;;;;;7.32;5.88;;;17.70;96.10;;;;;;5074640;28;20072;-58
2021/08/10 06:30:52;;;;;;;12.35;7.43;;;17.80;96.00;;;;;;5074689;28;20044;-56
2021/08/10 06:33:18;;;;;;;13.23;7.82;;;18.00;95.80;;;;;;5074586;28;20127;-56
2021/08/10 06:35:43;;;;;;;10.77;6.93;;;18.10;95.70;;;;;;5074533;28;20510;-56
2021/08/10 06:38:09;;;;;;;9.18;6.18;;;18.20;95.30;;;;;;5074517;28;20448;-60
2021/08/10 06:40:35;;;;;;;9.10;6.03;;;18.40;95.10;;;;;;5074369;28;20090;-58
2021/08/10 06:43:00;;;;;;;17.38;7.25;;;18.40;94.60;;;;;;5076226;28;20112;-60
2021/08/10 06:45:26;;;;;;;19.08;7.35;;;18.40;94.10;;;;;;5040272;28;20090;-57
2021/08/10 06:47:52;;;;;;;11.18;6.60;;;18.30;94.10;;;;;;5075148;28;20039;-59
2021/08/10 06:50:18;;;;;;;21.42;9.00;;;18.30;94.20;;;;;;5091134;28;20055;-58
2021/08/10 06:52:46;;;;;;;17.70;7.10;;;18.30;94.50;;;;;;5093050;28;20047;-54
2021/08/10 06:55:12;;;;;;;15.65;6.07;;;18.30;94.00;;;;;;5076061;28;20037;-60
2021/08/10 06:57:38;;;;;;;15.38;6.07;;;18.30;93.70;;;;;;5074760;28;20032;-56
2021/08/10 07:00:06;;;;;;;9.38;5.55;;;18.20;93.70;;;;;;5074416;28;20507;-57
2021/08/10 07:02:32;;;;;;;7.78;5.32;;;18.20;94.20;;;;;;5056094;28;20132;-62
2021/08/10 07:04:57;;;;;;;7.85;5.90;;;18.10;94.50;;;;;;5056464;28;20115;-55
2021/08/10 07:07:23;;;;;;;10.38;5.65;;;18.00;94.80;;;;;;5075153;28;20032;-54
2021/08/10 07:09:49;;;;;;;11.55;5.82;;;18.00;94.70;;;;;;5056134;28;20083;-58
2021/08/10 07:12:15;;;;;;;7.55;5.05;;;18.00;94.10;;;;;;5042557;28;20132;-58
2021/08/10 07:14:40;;;;;;;8.43;5.18;;;18.00;93.40;;;;;;5057119;28;20124;-58
2021/08/10 07:17:06;;;;;;;8.30;5.35;;;17.90;93.60;;;;;;5074149;28;20033;-55
2021/08/10 07:19:32;;;;;;;8.88;5.35;;;17.90;93.90;;;;;;5084669;28;20036;-56
2021/08/10 07:21:57;;;;;;;7.70;5.65;;;17.90;94.10;;;;;;5093617;28;20092;-55
2021/08/10 07:24:23;;;;;;;6.40;5.43;;;17.80;94.40;;;;;;5093634;28;20077;-53
2021/08/10 07:26:49;;;;;;;7.40;5.70;;;17.80;94.60;;;;;;5075083;28;20067;-57
2021/08/10 07:29:15;;;;;;;7.40;5.50;;;17.70;94.90;;;;;;5094862;28;20051;-57
2021/08/10 07:31:41;;;;;;;9.02;5.30;;;17.80;94.80;;;;;;5093616;28;20020;-56
2021/08/10 07:34:06;;;;;;;9.98;5.35;;;17.80;94.60;;;;;;5093710;28;20040;-57
2021/08/10 07:36:32;;;;;;;9.95;6.00;;;17.80;94.70;;;;;;5093429;28;20511;-57
2021/08/10 07:38:57;;;;;;;10.45;5.05;;;17.90;94.60;;;;;;5093371;28;20047;-57
2021/08/10 07:41:23;;;;;;;7.53;5.22;;;17.90;94.30;;;;;;5093064;28;20039;-54
2021/08/10 07:43:48;;;;;;;7.57;4.97;;;18.00;94.20;;;;;;5093587;28;20480;-58
2021/08/10 07:46:14;;;;;;;9.30;6.22;;;18.00;93.80;;;;;;5093363;28;20117;-54
2021/08/10 07:48:40;;;;;;;10.18;7.25;;;18.00;93.80;;;;;;5077340;28;20174;-56
2021/08/10 07:51:05;;;;;;;18.15;6.22;;;18.10;93.70;;;;;;5073134;28;20040;-55
2021/08/10 07:53:31;;;;;;;7.20;5.22;;;18.10;93.30;;;;;;5038554;28;20027;-54
2021/08/10 07:55:57;;;;;;;7.18;5.00;;;18.10;93.30;;;;;;5073164;28;20097;-54
2021/08/10 07:58:23;;;;;;;9.18;5.35;;;18.20;93.30;;;;;;5072986;28;20355;-55
2021/08/10 08:00:48;;;;;;;7.10;5.00;;;18.20;93.00;;;;;;5055105;28;20044;-56
2021/08/10 08:03:15;;;;;;;7.90;5.13;;;18.20;93.00;;;;;;5072991;28;20029;-53
2021/08/10 08:05:41;;;;;;;13.52;6.18;;;18.20;93.30;;;;;;5072794;28;20044;-58
2021/08/10 08:08:06;;;;;;;12.25;5.50;;;18.30;93.70;;;;;;5073027;28;20128;-54
2021/08/10 08:10:32;;;;;;;10.55;5.10;;;18.40;93.50;;;;;;5072926;28;20117;-55
2021/08/10 08:12:58;;;;;;;7.18;4.68;;;18.50;93.60;;;;;;5073072;28;20043;-57
2021/08/10 08:15:24;;;;;;;8.65;5.10;;;18.60;93.50;;;;;;5073080;28;20556;-60
2021/08/10 08:17:49;;;;;;;11.07;5.57;;;18.80;93.30;;;;;;5073304;28;20081;-58
2021/08/10 08:20:17;;;;;;;8.40;5.70;;;18.80;93.30;;;;;;5085045;28;20036;-55
2021/08/10 08:22:43;;;;;;;8.57;5.93;;;18.90;93.30;;;;;;5083035;28;20044;-55
2021/08/10 08:25:09;;;;;;;9.38;5.90;;;18.90;93.30;;;;;;5068547;28;20062;-54
2021/08/10 08:27:36;;;;;;;9.82;5.95;;;18.80;93.30;;;;;;5092550;28;20031;-58
2021/08/10 08:30:01;;;;;;;10.07;5.97;;;18.80;93.40;;;;;;5092532;28;20521;-55
2021/08/10 08:32:27;;;;;;;10.32;6.13;;;18.80;93.40;;;;;;5074478;28;20071;-56
2021/08/10 08:34:52;;;;;;;15.20;7.03;;;18.80;93.60;;;;;;5074477;28;20364;-56
2021/08/10 08:37:18;;;;;;;13.52;6.63;;;18.70;93.80;;;;;;5092545;28;20081;-59
2021/08/10 08:39:43;;;;;;;10.73;6.10;;;18.80;93.90;;;;;;5092667;28;20036;-55
2021/08/10 08:42:12;;;;;;;7.57;5.25;;;18.80;93.40;;;;;;5094934;28;20066;-59
2021/08/10 08:44:37;;;;;;;12.10;6.40;;;18.80;93.50;;;;;;5092411;28;20020;-57
2021/08/10 08:47:08;;;;;;;9.07;5.25;;;18.90;93.50;;;;;;5087563;28;20542;-53
2021/08/10 08:49:36;;;;;;;7.57;5.78;;;19.00;93.60;;;;;;5085133;28;20063;-56
2021/08/10 08:52:09;;;;;;;8.07;6.13;;;19.10;93.70;;;;;;5082735;28;20458;-52
2021/08/10 08:54:37;;;;;;;10.48;6.90;;;19.30;93.30;;;;;;5082529;28;20032;-55
2021/08/10 08:57:03;;;;;;;10.73;5.95;;;19.30;92.80;;;;;;5074400;28;20040;-57
2021/08/10 08:59:30;;;;;;;9.80;6.45;;;19.30;93.00;;;;;;5051977;28;20036;-56
2021/08/10 09:01:56;;;;;;;13.88;6.20;;;19.40;93.50;;;;;;5071922;28;20082;-56
2021/08/10 09:04:21;;;;;;;9.27;6.57;;;19.50;92.60;;;;;;5061592;28;20052;-57
2021/08/10 09:06:48;;;;;;;15.43;5.68;;;19.60;92.20;;;;;;5081338;28;20381;-55
2021/08/10 09:09:24;;;;;;;11.60;5.57;;;19.80;92.00;;;;;;5082848;28;20551;-54
2021/08/10 09:12:02;;;;;;;11.50;5.38;;;19.80;91.90;;;;;;5081399;28;20043;-56
2021/08/10 09:14:48;;;;;;;11.13;6.43;;;19.70;92.20;;;;;;5080788;28;20021;-56
2021/08/10 09:17:24;;;;;;;8.00;5.55;;;19.80;92.30;;;;;;5081438;28;20074;-53
2021/08/10 09:19:55;;;;;;;9.07;5.70;;;19.70;92.40;;;;;;5081562;28;20032;-54
2021/08/10 09:22:25;;;;;;;8.40;5.70;;;19.70;92.50;;;;;;5080026;28;20066;-54
2021/08/10 09:24:58;;;;;;;9.35;4.97;;;19.70;92.70;;;;;;5079940;28;20032;-54
2021/08/10 09:27:29;;;;;;;8.82;4.80;;;19.60;92.60;;;;;;5071176;28;20083;-54
2021/08/10 09:29:56;;;;;;;11.25;5.70;;;19.80;92.70;;;;;;5054194;28;20036;-59
2021/08/10 09:32:23;;;;;;;11.68;5.10;;;19.80;92.90;;;;;;5072279;28;20086;-56
2021/08/10 09:35:14;;;;;;;14.48;5.53;;;19.90;92.90;;;;;;5074987;28;20033;-57
2021/08/10 09:37:40;;;;;;;8.02;4.72;;;19.90;92.80;;;;;;5075291;28;20043;-59
2021/08/10 09:40:26;;;;;;;12.85;4.63;;;19.70;92.40;;;;;;5075369;28;20033;-57
2021/08/10 09:42:51;;;;;;;6.53;3.25;;;19.60;92.20;;;;;;5075804;28;20043;-59
2021/08/10 09:45:17;;;;;;;5.25;3.05;;;19.60;89.80;;;;;;5040994;28;20032;-55
2021/08/10 09:47:43;;;;;;;6.75;3.45;;;19.70;87.90;;;;;;5076072;28;20035;-55
2021/08/10 09:50:24;;;;;;;6.47;3.85;;;19.70;88.30;;;;;;5061282;28;20036;-54
2021/08/10 09:52:49;;;;;;;5.97;3.58;;;19.70;88.90;;;;;;5076953;28;20051;-58
2021/08/10 09:55:17;;;;;;;7.47;5.15;;;19.70;89.70;;;;;;5095569;28;20133;-54
2021/08/10 09:57:59;;;;;;;7.40;3.55;;;19.90;89.30;;;;;;5069100;28;20036;-57
2021/08/10 10:00:42;;;;;;;8.65;3.92;;;20.00;88.20;;;;;;5075712;28;20369;-55
2021/08/10 10:03:24;;;;;;;6.85;3.97;;;20.10;87.60;;;;;;5075974;28;20035;-55
2021/08/10 10:05:51;;;;;;;6.43;3.72;;;20.30;86.10;;;;;;5091335;28;20483;-57
2021/08/10 10:08:18;;;;;;;8.07;3.80;;;20.30;85.60;;;;;;5077271;28;20038;-57
2021/08/10 10:10:45;;;;;;;7.03;3.40;;;20.30;85.80;;;;;;5091449;28;20040;-56
2021/08/10 10:13:13;;;;;;;7.20;3.75;;;20.40;85.50;;;;;;5075079;28;20120;-55
2021/08/10 10:15:39;;;;;;;8.88;4.22;;;20.20;85.90;;;;;;5075181;28;20046;-58
2021/08/10 10:18:10;;;;;;;4.47;3.67;;;20.20;86.00;;;;;;5075467;28;20032;-57
2021/08/10 10:20:40;;;;;;;6.40;3.50;;;20.30;85.10;;;;;;5073394;28;20066;-56
2021/08/10 10:23:09;;;;;;;6.05;3.70;;;20.30;86.10;;;;;;5077047;28;20085;-55
2021/08/10 10:25:35;;;;;;;6.60;3.42;;;20.50;86.10;;;;;;5094977;28;20028;-57
2021/08/10 10:28:01;;;;;;;8.77;3.92;;;20.80;85.10;;;;;;5095403;28;20673;-57
2021/08/10 10:30:28;;;;;;;8.55;4.70;;;21.00;85.10;;;;;;5094907;28;20054;-60
2021/08/10 10:32:54;;;;;;;17.33;4.78;;;21.10;85.30;;;;;;5095399;28;20062;-59
2021/08/10 10:35:21;;;;;;;7.72;4.00;;;21.10;84.60;;;;;;5085754;28;20496;-60
2021/08/10 10:37:50;;;;;;;9.65;3.90;;;21.10;84.70;;;;;;5075200;28;20053;-59
2021/08/10 10:40:19;;;;;;;4.15;3.35;;;21.10;85.10;;;;;;5056226;28;20635;-57
2021/08/10 10:42:53;;;;;;;7.22;3.65;;;21.20;85.00;;;;;;5074010;28;20408;-59
2021/08/10 10:45:37;;;;;;;4.68;3.38;;;21.20;85.00;;;;;;5073360;28;20036;-57
2021/08/10 10:48:27;;;;;;;6.13;3.42;;;21.30;84.80;;;;;;5074556;28;20029;-58
2021/08/10 10:51:03;;;;;;;6.30;3.63;;;21.50;83.00;;;;;;5074914;28;20553;-56
2021/08/10 10:53:30;;;;;;;5.47;3.22;;;21.40;81.90;;;;;;5072875;28;20124;-59
2021/08/10 10:55:57;;;;;;;5.78;3.72;;;21.40;82.60;;;;;;5074318;28;20036;-56
2021/08/10 10:58:31;;;;;;;5.13;3.10;;;21.20;82.50;;;;;;5075297;28;20068;-59
2021/08/10 11:01:16;;;;;;;7.00;3.80;;;21.10;82.40;;;;;;5074003;28;20067;-57
2021/08/10 11:04:02;;;;;;;5.32;3.20;;;20.90;83.70;;;;;;5074438;28;20039;-57
2021/08/10 11:06:31;;;;;;;4.55;3.30;;;20.90;82.10;;;;;;5073806;28;20043;-59
2021/08/10 11:08:58;;;;;;;8.27;4.47;;;20.80;83.50;;;;;;5072817;28;20090;-60
2021/08/10 11:11:50;;;;;;;5.28;3.30;;;20.80;82.90;;;;;;5074619;28;20039;-61
2021/08/10 11:14:37;;;;;;;4.30;3.22;;;21.00;83.40;;;;;;5074311;28;20044;-59
2021/08/10 11:17:08;;;;;;;7.40;3.58;;;21.10;83.80;;;;;;5073768;28;20060;-57
2021/08/10 11:19:42;;;;;;;5.40;3.42;;;21.10;82.70;;;;;;5082426;28;20460;-60
2021/08/10 11:22:17;;;;;;;4.63;3.40;;;21.20;82.40;;;;;;5094005;28;20498;-58
2021/08/10 11:24:47;;;;;;;5.93;3.95;;;21.30;82.20;;;;;;5094222;28;20028;-58
2021/08/10 11:27:40;;;;;;;7.20;3.83;;;21.40;81.80;;;;;;5093739;28;20396;-59
2021/08/10 11:30:09;;;;;;;6.15;3.75;;;21.60;80.20;;;;;;5076349;28;20032;-58
2021/08/10 11:32:39;;;;;;;15.68;4.40;;;21.40;80.90;;;;;;5076270;28;20032;-56
2021/08/10 11:35:25;;;;;;;9.55;4.13;;;21.50;81.50;;;;;;5094346;28;20057;-59
2021/08/10 11:38:19;;;;;;;5.32;3.22;;;21.60;81.80;;;;;;5080289;28;20063;-59
2021/08/10 11:40:54;;;;;;;4.10;3.22;;;21.70;79.80;;;;;;5094272;28;20058;-59
2021/08/10 11:43:22;;;;;;;5.57;3.15;;;21.70;79.50;;;;;;5093564;28;20085;-57
2021/08/10 11:45:48;;;;;;;5.60;3.45;;;21.70;79.90;;;;;;5075273;28;20028;-56
2021/08/10 11:48:15;;;;;;;5.82;3.20;;;21.90;79.60;;;;;;5093731;28;20059;-58
2021/08/10 11:50:41;;;;;;;4.30;3.38;;;22.00;78.00;;;;;;5093208;28;20032;-56
2021/08/10 11:53:07;;;;;;;3.50;2.97;;;22.00;76.30;;;;;;5093053;28;20028;-60
2021/08/10 11:55:35;;;;;;;4.82;3.45;;;22.00;76.70;;;;;;5093329;28;20081;-58
2021/08/10 11:58:06;;;;;;;5.00;3.15;;;22.00;78.10;;;;;;5094135;28;20043;-60
2021/08/10 12:00:35;;;;;;;5.93;3.10;;;22.00;77.00;;;;;;5060156;28;20032;-54
2021/08/10 12:03:02;;;;;;;4.80;3.13;;;22.00;77.30;;;;;;5093116;28;20028;-57
2021/08/10 12:05:28;;;;;;;6.20;3.30;;;22.20;75.30;;;;;;5092939;28;20900;-58
2021/08/10 12:07:55;;;;;;;4.90;2.97;;;22.20;75.30;;;;;;5074523;28;20372;-57
2021/08/10 12:10:26;;;;;;;4.50;3.20;;;22.30;75.40;;;;;;5092857;28;20480;-58
2021/08/10 12:12:53;;;;;;;4.40;3.22;;;22.40;74.80;;;;;;5092936;28;20028;-60
2021/08/10 12:15:42;;;;;;;4.40;3.35;;;22.40;75.50;;;;;;5092760;28;20031;-60
2021/08/10 12:18:09;;;;;;;4.18;3.10;;;22.40;74.60;;;;;;5092538;28;20024;-61
2021/08/10 12:20:34;;;;;;;3.35;2.83;;;22.30;74.70;;;;;;5092679;28;20028;-59
2021/08/10 12:23:06;;;;;;;6.82;3.13;;;22.40;75.20;;;;;;5092717;28;20082;-58
2021/08/10 12:25:31;;;;;;;3.72;3.20;;;22.30;74.40;;;;;;5092519;28;20043;-59
2021/08/10 12:28:08;;;;;;;4.18;3.30;;;22.20;74.40;;;;;;5092899;28;20058;-57
2021/08/10 12:30:37;;;;;;;3.83;3.15;;;22.30;76.40;;;;;;5092348;28;20032;-60
2021/08/10 12:33:21;;;;;;;3.88;3.17;;;22.30;75.70;;;;;;5093494;28;20035;-60
2021/08/10 12:36:04;;;;;;;4.72;3.22;;;22.40;75.90;;;;;;5093468;28;20024;-57
2021/08/10 12:38:32;;;;;;;3.85;2.70;;;22.30;75.70;;;;;;5074723;28;20055;-57
2021/08/10 12:40:58;;;;;;;4.38;3.20;;;22.30;75.30;;;;;;5092343;28;20492;-60
2021/08/10 12:43:25;;;;;;;4.20;3.10;;;22.60;75.90;;;;;;5092832;28;20069;-58
2021/08/10 12:45:51;;;;;;;4.00;3.10;;;22.70;75.40;;;;;;5057334;28;20054;-57
2021/08/10 12:48:33;;;;;;;4.13;3.10;;;23.00;75.00;;;;;;5092566;28;20440;-56
2021/08/10 12:51:02;;;;;;;4.22;3.10;;;23.40;74.60;;;;;;5072468;28;20037;-58